Ardonia, NY

1:12 PM EST on November 22, 2014 (GMT -0500)
Dutchess County | Change Station
CLOSE
Current Station
Airport
Location: Poughkeepsie,
Elevation: 164 ft
Nearby Weather Stations

Elev 164 ft 41.63 °N, 73.88 °W | Updated 19 minutes ago

Partly Cloudy
Partly Cloudy
41 °F
Feels Like 36 °F
N
8
Wind Variable Wind from SW
Gusts 21 mph

Today
High -- | Low -- °F
--% Chance of Precip.
Yesterday
High -- | Low -- °F
Precip. -- in
6:53 AM 4:30 PM
New Moon, 0% visible
Pressure 30.27 in
Visibility 10.0 miles
Clouds Clear
Windchill 36 °F
Dew Point 9 °F
Humidity 27%
Rainfall 0.00 in
Snow Depth Not available.
UV 2 out of 12
Pollen .10 out of 12
Air Quality Not available.
Flu Activity Not available.
METAR KPOU 221753Z AUTO 22007G18KT 10SM CLR 05/M13 A3028 RMK AO2 SLP251 T00501128 10050 21056 58044 TSNO

More Conditions Fewer Conditions

Pressure 30.27 in
Visibility 10.0 miles
Clouds Clear
Windchill 36 °F
Dew Point 9 °F
Humidity 27%
Rainfall 0.00 in
Snow Depth Not available.
UV 2 out of 12
Pollen .10 out of 12
Air Quality Not available.
Flu Activity Not available.
METAR KPOU 221753Z AUTO 22007G18KT 10SM CLR 05/M13 A3028 RMK AO2 SLP251 T00501128 10050 21056 58044 TSNO

More Conditions Fewer Conditions

10-Day Weather Forecast

Almanac

Astronomy

Nov. 22, 2014 Rise Set
Actual Time
Civil Twilight
Nautical Twilight
Astronomical Twilight
Moon
Length of Visible Light
Length of Day
Tomorrow will be .
, % of the Moon is Illuminated

Today's Extremes

State Highs State Lows

Community

WunderPhotos

Upload Photos

1,772,873 photos uploaded!

WunderBlogs® & News

Nearby

Air Quality

  Air Quality AQ Index Pollutant
Not available.

Snow Depth

Station Depth Elevation

Earthquake Activity

City Distance Mag. Time & Date
Minimum magnitude displayed is 2.5.

Coastal Water Temperatures

Place Temperature

Nearby Weather Stations